Red Deer Regional Airport
CYQF : now visible

Airfield :











YOU CAN JOIN US ON...

 
LOGIN :

Register | Disclaimer

   EN    FR    IT 

 









Legend :    VFR   Marginal VFR   IFR   Intensive IFR   Very Intensive IFR
Visi :
Ceiling :
>= 8 km
>= 3000ft
5 to 8 km
1000 to 3000 ft
1500m to 5 km
500 to 1000 ft
800 to 1500m
200 to 500 ft
< 800m
< 200 ft
Symbols :   Thunderstorms  Fog  Heavy snow  Heavy precipitations  Wind > 20 kt






- Airport Elevation : 2968 ft
- IATA code : YQF


CYQF - Red Deer Regional

CURRENT METAR :
  • 172100Z AUTO 36004KT 290V030 9SM OVC100 M06/M09 A2941 RMK SLP017

EXPIRED METARs :
  • 172000Z AUTO VRB02KT 9SM SCT100 BKN160 M06/M10 A2942 RMK SLP019
  • 171900Z AUTO 20002KT 9SM BKN210 M08/M11 A2944 RMK SLP031

TAF TAF CYQF
Valid from the 17 at 18:00 until the 18 at 06:00 UTC


171740Z 1718/1806 22006KT P6SM SCT100 BKN240
TEMPO 1718/1724 BKN100
FM180000 18005KT P6SM SCT030 OVC080
TEMPO 1800/1802 1SM -SHSN BKN008 OVC030
FM180200 35025G40KT 3/4SM -SHSN VV006
TEMPO 1802/1806 3SM -SN SCT006 OVC020 RMK FCST BASED ON AUTO OBS. NXT FCST BY 180000Z
CZEG FIR / North America



MET'MAP, your aeronautical weather chart ! - Copyright ORBIFLY December 2007 - Disclaimer

ORBIFLY MET'MAP TEAM :

Programming & Development : Alexandra Zaïnal
Concept & original design : Baudouin d'Aumeries
Assistance for programming : Marc-Olivier Méhu
Technical & hardware support : Manuel Goepfert

Contact : metmap@orbifly.com




SOURCES & CREDITS :

   NOAA       Earth
Advisory